sensor_id;sensor_type;location;lat;lon;timestamp;P1;durP1;ratioP1;P2;durP2;ratioP2
20290;SDS011;10304;51.074;13.754;2023-04-25T00:00:50;4.13;;;2.45;;
20290;SDS011;10304;51.074;13.754;2023-04-25T00:03:18;4.50;;;2.55;;
20290;SDS011;10304;51.074;13.754;2023-04-25T00:05:47;4.97;;;2.80;;
20290;SDS011;10304;51.074;13.754;2023-04-25T00:08:15;5.40;;;3.30;;
20290;SDS011;10304;51.074;13.754;2023-04-25T00:10:41;6.03;;;2.80;;
20290;SDS011;10304;51.074;13.754;2023-04-25T00:13:08;4.05;;;2.95;;
20290;SDS011;10304;51.074;13.754;2023-04-25T00:15:37;4.35;;;3.50;;
20290;SDS011;10304;51.074;13.754;2023-04-25T00:18:04;5.75;;;2.95;;
20290;SDS011;10304;51.074;13.754;2023-04-25T00:20:32;4.13;;;2.97;;
20290;SDS011;10304;51.074;13.754;2023-04-25T00:22:59;4.28;;;3.03;;
20290;SDS011;10304;51.074;13.754;2023-04-25T00:25:25;5.65;;;3.50;;
20290;SDS011;10304;51.074;13.754;2023-04-25T00:27:52;5.47;;;3.35;;
20290;SDS011;10304;51.074;13.754;2023-04-25T00:30:19;5.88;;;3.47;;
20290;SDS011;10304;51.074;13.754;2023-04-25T00:32:46;6.82;;;3.53;;
20290;SDS011;10304;51.074;13.754;2023-04-25T00:35:12;5.38;;;3.55;;
20290;SDS011;10304;51.074;13.754;2023-04-25T00:37:39;5.05;;;3.55;;
20290;SDS011;10304;51.074;13.754;2023-04-25T00:40:06;4.55;;;3.78;;
20290;SDS011;10304;51.074;13.754;2023-04-25T00:42:34;7.38;;;3.83;;
20290;SDS011;10304;51.074;13.754;2023-04-25T00:45:04;6.20;;;3.83;;
20290;SDS011;10304;51.074;13.754;2023-04-25T00:47:33;5.40;;;4.00;;
20290;SDS011;10304;51.074;13.754;2023-04-25T00:50:01;6.75;;;3.70;;
20290;SDS011;10304;51.074;13.754;2023-04-25T00:52:29;5.32;;;3.90;;
20290;SDS011;10304;51.074;13.754;2023-04-25T00:54:56;5.75;;;3.45;;
20290;SDS011;10304;51.074;13.754;2023-04-25T00:57:22;8.35;;;4.47;;
20290;SDS011;10304;51.074;13.754;2023-04-25T00:59:49;5.57;;;3.88;;
20290;SDS011;10304;51.074;13.754;2023-04-25T01:02:18;5.38;;;3.60;;
20290;SDS011;10304;51.074;13.754;2023-04-25T01:04:47;6.00;;;3.83;;
20290;SDS011;10304;51.074;13.754;2023-04-25T01:07:14;6.63;;;4.20;;
20290;SDS011;10304;51.074;13.754;2023-04-25T01:09:42;6.80;;;3.97;;
20290;SDS011;10304;51.074;13.754;2023-04-25T01:12:08;5.60;;;3.70;;
20290;SDS011;10304;51.074;13.754;2023-04-25T01:14:35;5.20;;;4.00;;
20290;SDS011;10304;51.074;13.754;2023-04-25T01:17:02;6.43;;;4.40;;
20290;SDS011;10304;51.074;13.754;2023-04-25T01:19:29;5.88;;;4.25;;
20290;SDS011;10304;51.074;13.754;2023-04-25T01:21:56;6.00;;;4.32;;
20290;SDS011;10304;51.074;13.754;2023-04-25T01:24:23;6.57;;;4.53;;
20290;SDS011;10304;51.074;13.754;2023-04-25T01:26:50;6.13;;;4.15;;
20290;SDS011;10304;51.074;13.754;2023-04-25T01:29:18;5.72;;;3.88;;
20290;SDS011;10304;51.074;13.754;2023-04-25T01:31:45;6.47;;;4.40;;
20290;SDS011;10304;51.074;13.754;2023-04-25T01:34:12;8.35;;;4.70;;
20290;SDS011;10304;51.074;13.754;2023-04-25T01:36:39;7.28;;;4.68;;
20290;SDS011;10304;51.074;13.754;2023-04-25T01:39:06;7.15;;;4.53;;
20290;SDS011;10304;51.074;13.754;2023-04-25T01:41:33;6.35;;;4.43;;
20290;SDS011;10304;51.074;13.754;2023-04-25T01:44:03;10.02;;;4.40;;
20290;SDS011;10304;51.074;13.754;2023-04-25T01:46:30;7.50;;;4.32;;
20290;SDS011;10304;51.074;13.754;2023-04-25T01:48:57;6.63;;;4.22;;
20290;SDS011;10304;51.074;13.754;2023-04-25T01:51:23;10.57;;;4.20;;
20290;SDS011;10304;51.074;13.754;2023-04-25T01:53:50;9.05;;;4.95;;
20290;SDS011;10304;51.074;13.754;2023-04-25T01:56:18;10.05;;;5.30;;
20290;SDS011;10304;51.074;13.754;2023-04-25T01:58:45;6.07;;;4.25;;
20290;SDS011;10304;51.074;13.754;2023-04-25T02:01:11;6.00;;;4.60;;
20290;SDS011;10304;51.074;13.754;2023-04-25T02:03:38;6.70;;;4.50;;
20290;SDS011;10304;51.074;13.754;2023-04-25T02:06:05;7.63;;;4.68;;
20290;SDS011;10304;51.074;13.754;2023-04-25T02:08:32;6.45;;;4.25;;
20290;SDS011;10304;51.074;13.754;2023-04-25T02:10:59;6.60;;;4.80;;
20290;SDS011;10304;51.074;13.754;2023-04-25T02:13:26;8.50;;;4.78;;
20290;SDS011;10304;51.074;13.754;2023-04-25T02:15:53;7.68;;;4.70;;
20290;SDS011;10304;51.074;13.754;2023-04-25T02:18:19;6.18;;;4.70;;
20290;SDS011;10304;51.074;13.754;2023-04-25T02:20:47;6.50;;;4.72;;
20290;SDS011;10304;51.074;13.754;2023-04-25T02:23:14;5.97;;;4.30;;
20290;SDS011;10304;51.074;13.754;2023-04-25T02:25:41;7.15;;;5.05;;
20290;SDS011;10304;51.074;13.754;2023-04-25T02:28:08;6.57;;;4.45;;
20290;SDS011;10304;51.074;13.754;2023-04-25T02:30:35;8.02;;;4.82;;
20290;SDS011;10304;51.074;13.754;2023-04-25T02:33:02;8.88;;;5.10;;
20290;SDS011;10304;51.074;13.754;2023-04-25T02:35:28;5.40;;;4.55;;
20290;SDS011;10304;51.074;13.754;2023-04-25T02:37:55;7.38;;;4.90;;
20290;SDS011;10304;51.074;13.754;2023-04-25T02:40:22;5.90;;;4.70;;
20290;SDS011;10304;51.074;13.754;2023-04-25T02:42:49;6.75;;;4.55;;
20290;SDS011;10304;51.074;13.754;2023-04-25T02:45:15;5.85;;;4.38;;
20290;SDS011;10304;51.074;13.754;2023-04-25T02:47:42;5.82;;;4.50;;
20290;SDS011;10304;51.074;13.754;2023-04-25T02:50:09;7.22;;;4.32;;
20290;SDS011;10304;51.074;13.754;2023-04-25T02:52:36;5.40;;;4.40;;
20290;SDS011;10304;51.074;13.754;2023-04-25T02:55:02;11.23;;;5.68;;
20290;SDS011;10304;51.074;13.754;2023-04-25T02:57:29;6.00;;;4.28;;
20290;SDS011;10304;51.074;13.754;2023-04-25T02:59:56;6.78;;;4.40;;
20290;SDS011;10304;51.074;13.754;2023-04-25T03:02:23;8.98;;;4.97;;
20290;SDS011;10304;51.074;13.754;2023-04-25T03:04:49;7.13;;;4.68;;
20290;SDS011;10304;51.074;13.754;2023-04-25T03:07:16;8.05;;;4.65;;
20290;SDS011;10304;51.074;13.754;2023-04-25T03:09:43;8.30;;;4.50;;
20290;SDS011;10304;51.074;13.754;2023-04-25T03:12:09;6.40;;;4.90;;
20290;SDS011;10304;51.074;13.754;2023-04-25T03:14:36;9.20;;;4.95;;
20290;SDS011;10304;51.074;13.754;2023-04-25T03:17:02;7.82;;;4.80;;
20290;SDS011;10304;51.074;13.754;2023-04-25T03:19:29;6.88;;;5.15;;
20290;SDS011;10304;51.074;13.754;2023-04-25T03:21:56;6.68;;;4.57;;
20290;SDS011;10304;51.074;13.754;2023-04-25T03:24:23;7.85;;;4.93;;
20290;SDS011;10304;51.074;13.754;2023-04-25T03:26:50;10.23;;;4.90;;
20290;SDS011;10304;51.074;13.754;2023-04-25T03:29:16;5.82;;;4.20;;
20290;SDS011;10304;51.074;13.754;2023-04-25T03:31:43;8.95;;;4.97;;
20290;SDS011;10304;51.074;13.754;2023-04-25T03:34:10;7.57;;;5.25;;
20290;SDS011;10304;51.074;13.754;2023-04-25T03:36:36;7.07;;;4.68;;
20290;SDS011;10304;51.074;13.754;2023-04-25T03:39:06;6.18;;;4.60;;
20290;SDS011;10304;51.074;13.754;2023-04-25T03:41:33;8.27;;;5.60;;
20290;SDS011;10304;51.074;13.754;2023-04-25T03:43:59;7.95;;;5.32;;
20290;SDS011;10304;51.074;13.754;2023-04-25T03:46:26;6.82;;;5.00;;
20290;SDS011;10304;51.074;13.754;2023-04-25T03:48:53;7.22;;;4.85;;
20290;SDS011;10304;51.074;13.754;2023-04-25T03:51:19;9.20;;;5.75;;
20290;SDS011;10304;51.074;13.754;2023-04-25T03:53:47;8.77;;;5.25;;
20290;SDS011;10304;51.074;13.754;2023-04-25T03:56:14;8.55;;;5.43;;
20290;SDS011;10304;51.074;13.754;2023-04-25T03:58:41;10.18;;;6.07;;
20290;SDS011;10304;51.074;13.754;2023-04-25T04:01:07;8.75;;;6.30;;
20290;SDS011;10304;51.074;13.754;2023-04-25T04:03:35;8.98;;;6.20;;
20290;SDS011;10304;51.074;13.754;2023-04-25T04:06:03;9.65;;;5.47;;
20290;SDS011;10304;51.074;13.754;2023-04-25T04:08:32;10.20;;;6.10;;
20290;SDS011;10304;51.074;13.754;2023-04-25T04:10:59;8.95;;;5.70;;
20290;SDS011;10304;51.074;13.754;2023-04-25T04:13:26;11.75;;;6.22;;
20290;SDS011;10304;51.074;13.754;2023-04-25T04:15:54;11.30;;;5.88;;
20290;SDS011;10304;51.074;13.754;2023-04-25T04:18:21;8.43;;;5.93;;
20290;SDS011;10304;51.074;13.754;2023-04-25T04:20:48;6.50;;;5.50;;
20290;SDS011;10304;51.074;13.754;2023-04-25T04:23:15;8.00;;;5.82;;
20290;SDS011;10304;51.074;13.754;2023-04-25T04:25:42;9.52;;;6.22;;
20290;SDS011;10304;51.074;13.754;2023-04-25T04:28:09;11.52;;;5.78;;
20290;SDS011;10304;51.074;13.754;2023-04-25T04:30:37;10.02;;;5.80;;
20290;SDS011;10304;51.074;13.754;2023-04-25T04:33:05;10.23;;;5.80;;
20290;SDS011;10304;51.074;13.754;2023-04-25T04:35:33;8.88;;;6.00;;
20290;SDS011;10304;51.074;13.754;2023-04-25T04:38:00;12.02;;;6.28;;
20290;SDS011;10304;51.074;13.754;2023-04-25T04:40:27;10.52;;;6.25;;
20290;SDS011;10304;51.074;13.754;2023-04-25T04:42:53;10.13;;;6.28;;
20290;SDS011;10304;51.074;13.754;2023-04-25T04:45:23;7.72;;;5.32;;
20290;SDS011;10304;51.074;13.754;2023-04-25T04:47:49;9.65;;;5.68;;
20290;SDS011;10304;51.074;13.754;2023-04-25T04:50:16;9.77;;;6.05;;
20290;SDS011;10304;51.074;13.754;2023-04-25T04:52:44;9.80;;;6.18;;
20290;SDS011;10304;51.074;13.754;2023-04-25T04:55:11;11.20;;;5.85;;
20290;SDS011;10304;51.074;13.754;2023-04-25T04:57:37;7.82;;;5.82;;
20290;SDS011;10304;51.074;13.754;2023-04-25T05:00:05;11.30;;;6.20;;
20290;SDS011;10304;51.074;13.754;2023-04-25T05:02:37;10.27;;;6.15;;
20290;SDS011;10304;51.074;13.754;2023-04-25T05:05:05;9.23;;;5.47;;
20290;SDS011;10304;51.074;13.754;2023-04-25T05:07:32;9.23;;;5.63;;
20290;SDS011;10304;51.074;13.754;2023-04-25T05:09:59;9.65;;;6.25;;
20290;SDS011;10304;51.074;13.754;2023-04-25T05:12:25;8.77;;;5.28;;
20290;SDS011;10304;51.074;13.754;2023-04-25T05:14:52;11.57;;;6.18;;
20290;SDS011;10304;51.074;13.754;2023-04-25T05:17:19;9.63;;;6.35;;
20290;SDS011;10304;51.074;13.754;2023-04-25T05:19:45;8.70;;;5.45;;
20290;SDS011;10304;51.074;13.754;2023-04-25T05:22:12;9.98;;;6.05;;
20290;SDS011;10304;51.074;13.754;2023-04-25T05:24:39;10.63;;;5.97;;
20290;SDS011;10304;51.074;13.754;2023-04-25T05:27:06;9.45;;;5.80;;
20290;SDS011;10304;51.074;13.754;2023-04-25T05:29:32;8.98;;;6.05;;
20290;SDS011;10304;51.074;13.754;2023-04-25T05:31:59;9.75;;;6.00;;
20290;SDS011;10304;51.074;13.754;2023-04-25T05:34:26;9.38;;;6.40;;
20290;SDS011;10304;51.074;13.754;2023-04-25T05:36:53;9.20;;;5.70;;
20290;SDS011;10304;51.074;13.754;2023-04-25T05:39:19;9.45;;;5.25;;
20290;SDS011;10304;51.074;13.754;2023-04-25T05:41:46;8.98;;;5.32;;
20290;SDS011;10304;51.074;13.754;2023-04-25T05:44:13;6.55;;;4.78;;
20290;SDS011;10304;51.074;13.754;2023-04-25T05:46:42;8.15;;;5.47;;
20290;SDS011;10304;51.074;13.754;2023-04-25T05:49:08;9.05;;;5.47;;
20290;SDS011;10304;51.074;13.754;2023-04-25T05:51:35;10.93;;;5.38;;
20290;SDS011;10304;51.074;13.754;2023-04-25T05:54:02;7.40;;;5.18;;
20290;SDS011;10304;51.074;13.754;2023-04-25T05:56:28;12.82;;;5.57;;
20290;SDS011;10304;51.074;13.754;2023-04-25T05:58:55;9.32;;;6.10;;
20290;SDS011;10304;51.074;13.754;2023-04-25T06:01:22;10.05;;;5.90;;
20290;SDS011;10304;51.074;13.754;2023-04-25T06:03:49;10.35;;;5.88;;
20290;SDS011;10304;51.074;13.754;2023-04-25T06:06:18;9.48;;;5.68;;
20290;SDS011;10304;51.074;13.754;2023-04-25T06:08:45;8.02;;;5.22;;
20290;SDS011;10304;51.074;13.754;2023-04-25T06:11:12;11.18;;;5.60;;
20290;SDS011;10304;51.074;13.754;2023-04-25T06:13:38;10.63;;;5.35;;
20290;SDS011;10304;51.074;13.754;2023-04-25T06:16:05;10.82;;;5.28;;
20290;SDS011;10304;51.074;13.754;2023-04-25T06:18:32;11.07;;;6.30;;
20290;SDS011;10304;51.074;13.754;2023-04-25T06:20:59;7.70;;;5.53;;
20290;SDS011;10304;51.074;13.754;2023-04-25T06:23:26;10.02;;;5.85;;
20290;SDS011;10304;51.074;13.754;2023-04-25T06:25:52;10.02;;;5.72;;
20290;SDS011;10304;51.074;13.754;2023-04-25T06:28:19;8.88;;;5.47;;
20290;SDS011;10304;51.074;13.754;2023-04-25T06:30:48;8.90;;;5.55;;
20290;SDS011;10304;51.074;13.754;2023-04-25T06:33:14;10.82;;;5.60;;
20290;SDS011;10304;51.074;13.754;2023-04-25T06:35:41;11.52;;;5.45;;
20290;SDS011;10304;51.074;13.754;2023-04-25T06:38:08;8.57;;;4.70;;
20290;SDS011;10304;51.074;13.754;2023-04-25T06:40:35;7.85;;;5.15;;
20290;SDS011;10304;51.074;13.754;2023-04-25T06:43:02;10.95;;;5.18;;
20290;SDS011;10304;51.074;13.754;2023-04-25T06:45:28;9.15;;;4.57;;
20290;SDS011;10304;51.074;13.754;2023-04-25T06:47:55;9.80;;;4.97;;
20290;SDS011;10304;51.074;13.754;2023-04-25T06:50:22;10.02;;;5.18;;
20290;SDS011;10304;51.074;13.754;2023-04-25T06:52:49;11.25;;;6.35;;
20290;SDS011;10304;51.074;13.754;2023-04-25T06:55:16;7.75;;;4.60;;
20290;SDS011;10304;51.074;13.754;2023-04-25T06:57:43;9.43;;;4.78;;
20290;SDS011;10304;51.074;13.754;2023-04-25T07:00:09;8.52;;;5.07;;
20290;SDS011;10304;51.074;13.754;2023-04-25T07:02:36;8.73;;;4.00;;
20290;SDS011;10304;51.074;13.754;2023-04-25T07:05:03;7.03;;;4.22;;
20290;SDS011;10304;51.074;13.754;2023-04-25T07:07:30;6.00;;;3.80;;
20290;SDS011;10304;51.074;13.754;2023-04-25T07:09:57;6.72;;;3.70;;
20290;SDS011;10304;51.074;13.754;2023-04-25T07:12:23;8.50;;;3.92;;
20290;SDS011;10304;51.074;13.754;2023-04-25T07:14:50;6.15;;;3.60;;
20290;SDS011;10304;51.074;13.754;2023-04-25T07:17:17;8.05;;;3.97;;
20290;SDS011;10304;51.074;13.754;2023-04-25T07:19:43;7.45;;;3.50;;
20290;SDS011;10304;51.074;13.754;2023-04-25T07:22:11;5.30;;;3.10;;
20290;SDS011;10304;51.074;13.754;2023-04-25T07:24:38;7.03;;;3.38;;
20290;SDS011;10304;51.074;13.754;2023-04-25T07:27:05;7.15;;;3.83;;
20290;SDS011;10304;51.074;13.754;2023-04-25T07:29:32;8.45;;;3.67;;
20290;SDS011;10304;51.074;13.754;2023-04-25T07:32:01;6.72;;;3.72;;
20290;SDS011;10304;51.074;13.754;2023-04-25T07:34:28;6.15;;;3.45;;
20290;SDS011;10304;51.074;13.754;2023-04-25T07:36:56;5.88;;;3.30;;
20290;SDS011;10304;51.074;13.754;2023-04-25T07:39:23;7.72;;;3.80;;
20290;SDS011;10304;51.074;13.754;2023-04-25T07:41:49;7.10;;;3.75;;
20290;SDS011;10304;51.074;13.754;2023-04-25T07:44:20;6.88;;;3.80;;
20290;SDS011;10304;51.074;13.754;2023-04-25T07:46:46;7.45;;;3.78;;
20290;SDS011;10304;51.074;13.754;2023-04-25T07:49:13;6.35;;;3.05;;
20290;SDS011;10304;51.074;13.754;2023-04-25T07:51:41;5.25;;;3.25;;
20290;SDS011;10304;51.074;13.754;2023-04-25T07:54:10;9.95;;;3.70;;
20290;SDS011;10304;51.074;13.754;2023-04-25T07:56:41;6.88;;;2.80;;
20290;SDS011;10304;51.074;13.754;2023-04-25T07:59:18;5.20;;;3.17;;
20290;SDS011;10304;51.074;13.754;2023-04-25T08:01:45;5.32;;;3.10;;
20290;SDS011;10304;51.074;13.754;2023-04-25T08:04:12;7.40;;;3.35;;
20290;SDS011;10304;51.074;13.754;2023-04-25T08:06:39;6.75;;;3.45;;
20290;SDS011;10304;51.074;13.754;2023-04-25T08:09:06;5.07;;;3.28;;
20290;SDS011;10304;51.074;13.754;2023-04-25T08:11:35;9.55;;;4.07;;
20290;SDS011;10304;51.074;13.754;2023-04-25T08:14:02;5.43;;;3.00;;
20290;SDS011;10304;51.074;13.754;2023-04-25T08:16:29;5.57;;;3.15;;
20290;SDS011;10304;51.074;13.754;2023-04-25T08:18:56;4.50;;;2.60;;
20290;SDS011;10304;51.074;13.754;2023-04-25T08:21:24;5.30;;;3.13;;
20290;SDS011;10304;51.074;13.754;2023-04-25T08:23:52;7.55;;;3.20;;
20290;SDS011;10304;51.074;13.754;2023-04-25T08:26:19;12.18;;;3.20;;
20290;SDS011;10304;51.074;13.754;2023-04-25T08:28:46;6.07;;;3.17;;
20290;SDS011;10304;51.074;13.754;2023-04-25T08:31:13;6.80;;;3.25;;
20290;SDS011;10304;51.074;13.754;2023-04-25T08:33:41;7.38;;;3.33;;
20290;SDS011;10304;51.074;13.754;2023-04-25T08:36:08;4.88;;;3.05;;
20290;SDS011;10304;51.074;13.754;2023-04-25T08:38:35;5.32;;;2.60;;
20290;SDS011;10304;51.074;13.754;2023-04-25T08:41:02;6.20;;;3.13;;
20290;SDS011;10304;51.074;13.754;2023-04-25T08:43:31;5.30;;;3.03;;
20290;SDS011;10304;51.074;13.754;2023-04-25T08:45:59;6.68;;;3.50;;
20290;SDS011;10304;51.074;13.754;2023-04-25T08:48:26;6.88;;;3.95;;
20290;SDS011;10304;51.074;13.754;2023-04-25T08:50:57;7.90;;;4.13;;
20290;SDS011;10304;51.074;13.754;2023-04-25T08:53:28;7.75;;;4.63;;
20290;SDS011;10304;51.074;13.754;2023-04-25T08:55:57;7.18;;;3.35;;
20290;SDS011;10304;51.074;13.754;2023-04-25T08:58:25;6.35;;;3.40;;
20290;SDS011;10304;51.074;13.754;2023-04-25T09:00:53;4.03;;;2.35;;
20290;SDS011;10304;51.074;13.754;2023-04-25T09:03:20;7.38;;;3.20;;
20290;SDS011;10304;51.074;13.754;2023-04-25T09:05:47;4.60;;;3.30;;
20290;SDS011;10304;51.074;13.754;2023-04-25T09:08:15;5.65;;;3.30;;
20290;SDS011;10304;51.074;13.754;2023-04-25T09:10:42;5.53;;;3.72;;
20290;SDS011;10304;51.074;13.754;2023-04-25T09:13:10;4.65;;;3.10;;
20290;SDS011;10304;51.074;13.754;2023-04-25T09:15:51;7.65;;;3.85;;
20290;SDS011;10304;51.074;13.754;2023-04-25T09:18:23;6.97;;;4.18;;
20290;SDS011;10304;51.074;13.754;2023-04-25T09:23:46;8.95;;;4.88;;
20290;SDS011;10304;51.074;13.754;2023-04-25T09:26:16;7.20;;;4.63;;
20290;SDS011;10304;51.074;13.754;2023-04-25T09:28:46;6.65;;;3.75;;
20290;SDS011;10304;51.074;13.754;2023-04-25T09:31:22;7.75;;;4.20;;
20290;SDS011;10304;51.074;13.754;2023-04-25T09:33:50;5.63;;;3.90;;
20290;SDS011;10304;51.074;13.754;2023-04-25T09:36:29;6.03;;;3.90;;
20290;SDS011;10304;51.074;13.754;2023-04-25T09:38:57;10.73;;;5.18;;
20290;SDS011;10304;51.074;13.754;2023-04-25T09:41:26;5.22;;;4.10;;
20290;SDS011;10304;51.074;13.754;2023-04-25T09:43:56;7.57;;;4.05;;
20290;SDS011;10304;51.074;13.754;2023-04-25T09:46:25;8.32;;;4.38;;
20290;SDS011;10304;51.074;13.754;2023-04-25T09:48:51;6.38;;;3.88;;
20290;SDS011;10304;51.074;13.754;2023-04-25T09:51:20;10.00;;;4.45;;
20290;SDS011;10304;51.074;13.754;2023-04-25T09:53:51;7.88;;;4.30;;
20290;SDS011;10304;51.074;13.754;2023-04-25T09:56:18;6.10;;;4.43;;
20290;SDS011;10304;51.074;13.754;2023-04-25T09:58:46;8.18;;;4.30;;
20290;SDS011;10304;51.074;13.754;2023-04-25T10:01:13;8.55;;;4.20;;
20290;SDS011;10304;51.074;13.754;2023-04-25T10:03:42;6.57;;;4.03;;
20290;SDS011;10304;51.074;13.754;2023-04-25T10:06:12;7.95;;;3.72;;
20290;SDS011;10304;51.074;13.754;2023-04-25T10:08:44;7.03;;;3.17;;
20290;SDS011;10304;51.074;13.754;2023-04-25T10:11:13;4.15;;;3.30;;
20290;SDS011;10304;51.074;13.754;2023-04-25T10:13:42;4.00;;;2.60;;
20290;SDS011;10304;51.074;13.754;2023-04-25T10:16:09;4.97;;;3.08;;
20290;SDS011;10304;51.074;13.754;2023-04-25T10:18:36;5.07;;;3.00;;
20290;SDS011;10304;51.074;13.754;2023-04-25T10:21:04;5.65;;;3.35;;
20290;SDS011;10304;51.074;13.754;2023-04-25T10:23:33;5.63;;;3.78;;
20290;SDS011;10304;51.074;13.754;2023-04-25T10:26:00;6.97;;;3.65;;
20290;SDS011;10304;51.074;13.754;2023-04-25T10:28:28;5.10;;;3.10;;
20290;SDS011;10304;51.074;13.754;2023-04-25T10:31:01;6.75;;;3.40;;
20290;SDS011;10304;51.074;13.754;2023-04-25T10:36:10;6.18;;;3.40;;
20290;SDS011;10304;51.074;13.754;2023-04-25T10:38:39;5.88;;;3.78;;
20290;SDS011;10304;51.074;13.754;2023-04-25T10:41:08;5.75;;;4.10;;
20290;SDS011;10304;51.074;13.754;2023-04-25T10:51:24;11.48;;;4.60;;
20290;SDS011;10304;51.074;13.754;2023-04-25T10:54:06;6.93;;;4.25;;
20290;SDS011;10304;51.074;13.754;2023-04-25T10:56:39;7.28;;;4.03;;
20290;SDS011;10304;51.074;13.754;2023-04-25T10:59:17;11.15;;;4.50;;
20290;SDS011;10304;51.074;13.754;2023-04-25T11:01:51;6.72;;;4.30;;
20290;SDS011;10304;51.074;13.754;2023-04-25T11:04:31;8.25;;;5.00;;
20290;SDS011;10304;51.074;13.754;2023-04-25T11:07:04;7.28;;;5.07;;
20290;SDS011;10304;51.074;13.754;2023-04-25T11:09:38;8.93;;;5.75;;
20290;SDS011;10304;51.074;13.754;2023-04-25T11:12:09;12.68;;;4.45;;
20290;SDS011;10304;51.074;13.754;2023-04-25T11:14:58;8.85;;;4.80;;
20290;SDS011;10304;51.074;13.754;2023-04-25T11:17:32;7.78;;;4.78;;
20290;SDS011;10304;51.074;13.754;2023-04-25T11:19:59;8.23;;;4.68;;
20290;SDS011;10304;51.074;13.754;2023-04-25T11:22:26;11.00;;;4.28;;
20290;SDS011;10304;51.074;13.754;2023-04-25T11:24:53;8.73;;;3.90;;
20290;SDS011;10304;51.074;13.754;2023-04-25T11:27:20;9.07;;;4.35;;
20290;SDS011;10304;51.074;13.754;2023-04-25T11:29:47;9.52;;;3.40;;
20290;SDS011;10304;51.074;13.754;2023-04-25T11:32:15;9.88;;;3.90;;
20290;SDS011;10304;51.074;13.754;2023-04-25T11:34:44;7.75;;;3.88;;
20290;SDS011;10304;51.074;13.754;2023-04-25T11:37:14;5.93;;;3.65;;
20290;SDS011;10304;51.074;13.754;2023-04-25T11:39:44;6.72;;;2.20;;
20290;SDS011;10304;51.074;13.754;2023-04-25T11:42:12;2.58;;;1.20;;
20290;SDS011;10304;51.074;13.754;2023-04-25T11:44:39;4.40;;;1.40;;
20290;SDS011;10304;51.074;13.754;2023-04-25T11:47:06;3.25;;;1.65;;
20290;SDS011;10304;51.074;13.754;2023-04-25T11:49:33;4.55;;;1.63;;
20290;SDS011;10304;51.074;13.754;2023-04-25T11:52:01;4.22;;;1.48;;
20290;SDS011;10304;51.074;13.754;2023-04-25T11:54:28;3.92;;;1.80;;
20290;SDS011;10304;51.074;13.754;2023-04-25T11:56:55;5.35;;;1.60;;
20290;SDS011;10304;51.074;13.754;2023-04-25T11:59:23;6.88;;;1.92;;
20290;SDS011;10304;51.074;13.754;2023-04-25T12:01:51;7.88;;;1.85;;
20290;SDS011;10304;51.074;13.754;2023-04-25T12:04:19;4.97;;;2.72;;
20290;SDS011;10304;51.074;13.754;2023-04-25T12:06:48;5.07;;;2.10;;
20290;SDS011;10304;51.074;13.754;2023-04-25T12:09:38;5.22;;;2.17;;
20290;SDS011;10304;51.074;13.754;2023-04-25T12:12:04;5.22;;;2.20;;
20290;SDS011;10304;51.074;13.754;2023-04-25T12:14:32;6.25;;;2.53;;
20290;SDS011;10304;51.074;13.754;2023-04-25T12:17:02;5.35;;;2.58;;
20290;SDS011;10304;51.074;13.754;2023-04-25T12:19:34;8.90;;;2.70;;
20290;SDS011;10304;51.074;13.754;2023-04-25T12:22:02;7.57;;;2.90;;
20290;SDS011;10304;51.074;13.754;2023-04-25T12:24:32;10.52;;;2.70;;
20290;SDS011;10304;51.074;13.754;2023-04-25T12:27:05;8.80;;;2.95;;
20290;SDS011;10304;51.074;13.754;2023-04-25T12:29:34;10.35;;;2.85;;
20290;SDS011;10304;51.074;13.754;2023-04-25T12:32:14;9.55;;;3.42;;
20290;SDS011;10304;51.074;13.754;2023-04-25T12:34:41;8.45;;;2.80;;
20290;SDS011;10304;51.074;13.754;2023-04-25T12:37:09;9.43;;;3.08;;
20290;SDS011;10304;51.074;13.754;2023-04-25T12:39:36;11.32;;;3.28;;
20290;SDS011;10304;51.074;13.754;2023-04-25T12:42:03;9.90;;;3.03;;
20290;SDS011;10304;51.074;13.754;2023-04-25T12:44:34;9.15;;;3.15;;
20290;SDS011;10304;51.074;13.754;2023-04-25T12:47:01;7.22;;;3.22;;
20290;SDS011;10304;51.074;13.754;2023-04-25T12:49:29;12.02;;;3.95;;
20290;SDS011;10304;51.074;13.754;2023-04-25T12:51:56;9.82;;;3.30;;
20290;SDS011;10304;51.074;13.754;2023-04-25T12:54:23;10.13;;;3.67;;
20290;SDS011;10304;51.074;13.754;2023-04-25T12:56:50;7.43;;;3.28;;
20290;SDS011;10304;51.074;13.754;2023-04-25T12:59:17;10.98;;;3.53;;
20290;SDS011;10304;51.074;13.754;2023-04-25T13:01:46;7.72;;;3.20;;
20290;SDS011;10304;51.074;13.754;2023-04-25T13:04:13;6.80;;;3.60;;
20290;SDS011;10304;51.074;13.754;2023-04-25T13:06:39;9.32;;;3.17;;
20290;SDS011;10304;51.074;13.754;2023-04-25T13:09:06;9.93;;;3.78;;
20290;SDS011;10304;51.074;13.754;2023-04-25T13:11:33;9.70;;;3.80;;
20290;SDS011;10304;51.074;13.754;2023-04-25T13:14:00;11.13;;;3.42;;
20290;SDS011;10304;51.074;13.754;2023-04-25T13:16:27;13.88;;;3.83;;
20290;SDS011;10304;51.074;13.754;2023-04-25T13:18:53;11.77;;;4.28;;
20290;SDS011;10304;51.074;13.754;2023-04-25T13:21:22;15.65;;;4.55;;
20290;SDS011;10304;51.074;13.754;2023-04-25T13:23:49;13.93;;;4.15;;
20290;SDS011;10304;51.074;13.754;2023-04-25T13:26:17;11.27;;;4.53;;
20290;SDS011;10304;51.074;13.754;2023-04-25T13:28:43;12.18;;;4.50;;
20290;SDS011;10304;51.074;13.754;2023-04-25T13:31:10;13.45;;;4.32;;
20290;SDS011;10304;51.074;13.754;2023-04-25T13:33:37;13.52;;;4.40;;
20290;SDS011;10304;51.074;13.754;2023-04-25T13:36:04;9.60;;;4.13;;
20290;SDS011;10304;51.074;13.754;2023-04-25T13:38:31;16.05;;;4.03;;
20290;SDS011;10304;51.074;13.754;2023-04-25T13:40:58;13.52;;;4.13;;
20290;SDS011;10304;51.074;13.754;2023-04-25T13:43:25;12.80;;;3.33;;
20290;SDS011;10304;51.074;13.754;2023-04-25T13:45:52;13.20;;;4.00;;
20290;SDS011;10304;51.074;13.754;2023-04-25T13:48:19;13.90;;;3.80;;
20290;SDS011;10304;51.074;13.754;2023-04-25T13:50:46;10.73;;;3.78;;
20290;SDS011;10304;51.074;13.754;2023-04-25T13:53:13;10.38;;;3.42;;
20290;SDS011;10304;51.074;13.754;2023-04-25T13:55:39;15.00;;;4.78;;
20290;SDS011;10304;51.074;13.754;2023-04-25T13:58:06;12.55;;;3.72;;
20290;SDS011;10304;51.074;13.754;2023-04-25T14:00:38;13.48;;;3.78;;
20290;SDS011;10304;51.074;13.754;2023-04-25T14:03:09;12.80;;;3.85;;
20290;SDS011;10304;51.074;13.754;2023-04-25T14:05:36;10.82;;;3.42;;
20290;SDS011;10304;51.074;13.754;2023-04-25T14:08:05;8.95;;;3.72;;
20290;SDS011;10304;51.074;13.754;2023-04-25T14:10:35;13.35;;;3.80;;
20290;SDS011;10304;51.074;13.754;2023-04-25T14:13:03;10.70;;;4.05;;
20290;SDS011;10304;51.074;13.754;2023-04-25T14:15:31;14.18;;;4.03;;
20290;SDS011;10304;51.074;13.754;2023-04-25T14:17:59;12.02;;;3.90;;
20290;SDS011;10304;51.074;13.754;2023-04-25T14:20:26;14.13;;;3.80;;
20290;SDS011;10304;51.074;13.754;2023-04-25T14:22:53;12.00;;;4.05;;
20290;SDS011;10304;51.074;13.754;2023-04-25T14:25:22;12.77;;;3.80;;
20290;SDS011;10304;51.074;13.754;2023-04-25T14:27:49;12.32;;;3.75;;
20290;SDS011;10304;51.074;13.754;2023-04-25T14:30:16;13.73;;;4.25;;
20290;SDS011;10304;51.074;13.754;2023-04-25T14:32:44;11.95;;;3.67;;
20290;SDS011;10304;51.074;13.754;2023-04-25T14:35:11;12.10;;;3.78;;
20290;SDS011;10304;51.074;13.754;2023-04-25T14:37:38;13.02;;;3.55;;
20290;SDS011;10304;51.074;13.754;2023-04-25T14:40:06;11.80;;;3.90;;
20290;SDS011;10304;51.074;13.754;2023-04-25T14:42:36;8.80;;;3.58;;
20290;SDS011;10304;51.074;13.754;2023-04-25T14:45:04;14.07;;;3.72;;
20290;SDS011;10304;51.074;13.754;2023-04-25T14:47:31;12.00;;;4.25;;